createdAt,value
2019-01-03T00:01:16.230Z,15.90
2019-01-03T00:04:10.851Z,20.75
2019-01-03T00:07:08.409Z,16.70
2019-01-03T00:10:03.599Z,21.50
2019-01-03T00:13:04.064Z,20.43
2019-01-03T00:15:55.155Z,19.50
2019-01-03T00:18:52.493Z,23.22
2019-01-03T00:21:46.789Z,20.50
2019-01-03T00:24:31.946Z,24.65
2019-01-03T00:27:23.036Z,17.48
2019-01-03T00:30:20.278Z,25.55
2019-01-03T00:33:07.224Z,20.72
2019-01-03T00:35:55.338Z,19.37
2019-01-03T00:38:46.716Z,23.02
2019-01-03T00:41:50.093Z,18.82
2019-01-03T00:44:37.023Z,22.55
2019-01-03T00:47:34.094Z,18.45
2019-01-03T00:50:22.374Z,16.37
2019-01-03T00:53:12.171Z,18.80
2019-01-03T00:56:12.297Z,22.40
2019-01-03T00:59:19.110Z,18.45
2019-01-03T01:02:18.283Z,14.83
2019-01-03T01:05:09.662Z,18.70
2019-01-03T01:07:58.253Z,18.25
2019-01-03T01:10:45.005Z,14.25
2019-01-03T01:13:32.040Z,15.65
2019-01-03T01:16:19.015Z,14.15
2019-01-03T01:19:12.427Z,13.05
2019-01-03T01:22:04.429Z,14.13
2019-01-03T01:24:58.944Z,19.45
2019-01-03T01:27:53.063Z,12.90
2019-01-03T01:30:47.113Z,14.63
2019-01-03T01:33:38.374Z,18.05
2019-01-03T01:36:25.090Z,15.95
2019-01-03T01:39:13.413Z,18.10
2019-01-03T01:42:00.209Z,18.37
2019-01-03T01:44:46.836Z,18.45
2019-01-03T01:47:53.398Z,15.05
2019-01-03T01:50:50.359Z,18.12
2019-01-03T01:53:38.665Z,18.73
2019-01-03T01:56:42.147Z,13.30
2019-01-03T01:59:33.255Z,13.75
2019-01-03T02:02:20.003Z,12.58
2019-01-03T02:05:23.596Z,16.93
2019-01-03T02:08:14.379Z,16.75
2019-01-03T02:11:14.568Z,18.17
2019-01-03T02:14:11.861Z,19.80
2019-01-03T02:16:58.813Z,15.75
2019-01-03T02:19:45.828Z,14.70
2019-01-03T02:22:34.115Z,14.58
2019-01-03T02:25:22.426Z,13.15
2019-01-03T02:28:11.527Z,12.00
2019-01-03T02:30:58.509Z,15.28
2019-01-03T02:34:01.838Z,13.03
2019-01-03T02:36:48.898Z,11.63
2019-01-03T02:39:35.832Z,13.20
2019-01-03T02:42:33.172Z,15.03
2019-01-03T02:45:31.781Z,13.22
2019-01-03T02:48:29.300Z,14.55
2019-01-03T02:51:17.666Z,16.95
2019-01-03T02:54:11.731Z,15.23
2019-01-03T02:57:12.272Z,16.90
2019-01-03T02:59:58.918Z,15.80
2019-01-03T03:02:45.802Z,16.97
2019-01-03T03:05:34.646Z,13.22
2019-01-03T03:08:22.940Z,14.87
2019-01-03T03:11:20.225Z,13.60
2019-01-03T03:14:06.927Z,18.50
2019-01-03T03:17:07.072Z,13.90
2019-01-03T03:19:59.354Z,11.83
2019-01-03T03:22:41.779Z,15.40
2019-01-03T03:25:32.896Z,16.32
2019-01-03T03:28:30.048Z,15.20
2019-01-03T03:31:27.289Z,14.78
2019-01-03T03:34:14.529Z,16.42
2019-01-03T03:37:08.862Z,17.12
2019-01-03T03:40:03.807Z,20.77
2019-01-03T03:42:59.966Z,14.33
2019-01-03T03:45:46.907Z,15.50
2019-01-03T03:48:28.523Z,14.73
2019-01-03T03:51:25.892Z,16.00
2019-01-03T03:54:13.819Z,12.45
2019-01-03T03:57:08.123Z,11.65
2019-01-03T03:59:56.253Z,11.22
2019-01-03T04:02:39.873Z,15.63
2019-01-03T04:05:26.903Z,12.78
2019-01-03T04:08:11.286Z,15.63
2019-01-03T04:11:02.417Z,14.68
2019-01-03T04:13:56.869Z,15.95
2019-01-03T04:16:43.667Z,15.38
2019-01-03T04:19:30.707Z,15.60
2019-01-03T04:22:17.680Z,13.45
2019-01-03T04:25:12.075Z,17.42
2019-01-03T04:27:59.035Z,13.05
2019-01-03T04:30:50.547Z,15.45
2019-01-03T04:33:37.483Z,14.03
2019-01-03T04:36:24.503Z,12.45
2019-01-03T04:39:12.787Z,11.05
2019-01-03T04:42:16.236Z,17.60
2019-01-03T04:45:16.286Z,16.10
2019-01-03T04:47:53.387Z,12.93
2019-01-03T04:50:44.419Z,17.48
2019-01-03T04:53:32.681Z,17.55
2019-01-03T04:56:19.453Z,14.90
2019-01-03T04:59:06.381Z,13.78
2019-01-03T05:02:16.256Z,17.15
2019-01-03T05:05:13.770Z,17.25
2019-01-03T05:07:58.667Z,13.93
2019-01-03T05:10:56.216Z,15.08
2019-01-03T05:13:43.075Z,14.53
2019-01-03T05:16:29.765Z,11.03
2019-01-03T05:19:16.578Z,17.40
2019-01-03T05:22:10.886Z,16.97
2019-01-03T05:24:57.662Z,11.57
2019-01-03T05:27:58.138Z,12.80
2019-01-03T05:30:47.629Z,15.63
2019-01-03T05:33:35.152Z,16.75
2019-01-03T05:36:38.643Z,8.90
2019-01-03T05:39:30.723Z,13.30
2019-01-03T05:42:24.896Z,13.72
2019-01-03T05:45:28.516Z,12.40
2019-01-03T05:48:19.613Z,14.63
2019-01-03T05:51:07.905Z,15.10
2019-01-03T05:53:54.817Z,17.00
2019-01-03T05:56:38.757Z,13.68
2019-01-03T05:59:27.049Z,14.65
2019-01-03T06:02:27.208Z,12.68
2019-01-03T06:05:15.501Z,11.35
2019-01-03T06:08:01.073Z,14.90
2019-01-03T06:10:45.190Z,13.55
2019-01-03T06:13:51.346Z,11.10
2019-01-03T06:16:39.654Z,11.50
2019-01-03T06:19:27.907Z,15.32
2019-01-03T06:22:17.318Z,11.95
2019-01-03T06:25:05.930Z,11.85
2019-01-03T06:27:52.708Z,10.58
2019-01-03T06:30:47.015Z,14.50
2019-01-03T06:33:35.290Z,17.32
2019-01-03T06:36:22.004Z,14.80
2019-01-03T06:39:08.979Z,12.47
2019-01-03T06:41:56.508Z,16.15
2019-01-03T06:44:43.549Z,12.28
2019-01-03T06:47:30.597Z,11.53
2019-01-03T06:50:30.866Z,10.58
2019-01-03T06:53:17.842Z,8.18
2019-01-03T06:56:09.315Z,15.15
2019-01-03T06:59:03.555Z,12.28
2019-01-03T07:01:54.864Z,13.10
2019-01-03T07:04:58.131Z,15.03
2019-01-03T07:07:45.186Z,11.35
2019-01-03T07:10:51.737Z,9.15
2019-01-03T07:13:38.431Z,19.77
2019-01-03T07:16:20.974Z,10.95
2019-01-03T07:19:18.200Z,13.03
2019-01-03T07:22:15.444Z,11.57
2019-01-03T07:25:15.034Z,15.55
2019-01-03T07:28:01.796Z,11.73
2019-01-03T07:30:48.778Z,19.62
2019-01-03T07:33:35.588Z,11.95
2019-01-03T07:36:22.602Z,11.68
2019-01-03T07:39:19.994Z,9.63
2019-01-03T07:42:20.969Z,14.50
2019-01-03T07:45:08.046Z,18.07
2019-01-03T07:47:54.739Z,69.12
2019-01-03T07:50:41.510Z,14.65
2019-01-03T07:53:28.503Z,14.58
2019-01-03T07:56:15.315Z,15.48
2019-01-03T07:59:15.613Z,12.45
2019-01-03T08:02:02.295Z,13.93
2019-01-03T08:05:08.988Z,13.20
2019-01-03T08:08:00.473Z,16.37
2019-01-03T08:11:00.771Z,15.98
2019-01-03T08:13:49.041Z,11.75
2019-01-03T08:16:44.128Z,17.87
2019-01-03T08:19:30.061Z,14.13
2019-01-03T08:22:17.118Z,11.63
2019-01-03T08:25:04.170Z,14.28
2019-01-03T08:28:01.258Z,16.27
2019-01-03T08:30:58.574Z,13.68
2019-01-03T08:33:49.897Z,19.00
2019-01-03T08:36:36.939Z,17.55
2019-01-03T08:39:25.014Z,18.12
2019-01-03T08:42:11.737Z,13.58
2019-01-03T08:45:06.123Z,22.27
2019-01-03T08:47:57.518Z,14.68
2019-01-03T08:50:38.632Z,17.48
2019-01-03T08:53:25.451Z,16.97
2019-01-03T08:56:12.335Z,16.45
2019-01-03T08:58:59.166Z,16.75
2019-01-03T09:01:48.727Z,19.05
2019-01-03T09:04:37.386Z,16.42
2019-01-03T09:07:24.222Z,16.55
2019-01-03T09:10:09.326Z,15.35
2019-01-03T09:12:57.618Z,11.55
2019-01-03T09:15:49.001Z,20.70
2019-01-03T09:18:35.746Z,15.30
2019-01-03T09:21:30.408Z,14.80
2019-01-03T09:24:18.695Z,21.70
2019-01-03T09:27:00.651Z,20.15
2019-01-03T09:29:47.684Z,14.63
2019-01-03T09:32:38.875Z,16.87
2019-01-03T09:35:42.262Z,12.88
2019-01-03T09:38:40.998Z,15.83
2019-01-03T09:41:22.668Z,12.35
2019-01-03T09:44:17.185Z,15.48
2019-01-03T09:46:46.599Z,15.00
2019-01-03T09:49:15.995Z,13.10
2019-01-03T09:51:45.342Z,18.42
2019-01-03T09:54:14.776Z,15.90
2019-01-03T09:56:44.146Z,14.43
2019-01-03T09:59:13.573Z,15.55
2019-01-03T10:01:42.928Z,12.43
2019-01-03T10:04:12.320Z,19.10
2019-01-03T10:06:41.834Z,13.65
2019-01-03T10:09:11.205Z,15.13
2019-01-03T10:11:40.609Z,16.40
2019-01-03T10:14:10.202Z,15.63
2019-01-03T10:16:39.576Z,14.25
2019-01-03T10:19:08.953Z,19.15
2019-01-03T10:21:38.379Z,12.90
2019-01-03T10:24:07.779Z,13.35
2019-01-03T10:26:37.146Z,18.77
2019-01-03T10:29:06.533Z,10.05
2019-01-03T10:31:35.979Z,9.48
2019-01-03T10:34:05.461Z,15.13
2019-01-03T10:36:34.960Z,14.30
2019-01-03T10:39:05.910Z,12.40
2019-01-03T10:41:35.299Z,12.43
2019-01-03T10:44:04.669Z,10.53
2019-01-03T10:46:34.081Z,14.18
2019-01-03T10:49:03.427Z,15.08
2019-01-03T10:51:32.776Z,18.92
2019-01-03T10:54:02.137Z,19.85
2019-01-03T10:56:31.521Z,14.63
2019-01-03T10:59:00.891Z,12.45
2019-01-03T11:01:30.270Z,14.43
2019-01-03T11:03:59.651Z,13.88
2019-01-03T11:06:29.028Z,9.80
2019-01-03T11:08:58.395Z,15.48
2019-01-03T11:11:27.775Z,13.53
2019-01-03T11:13:57.152Z,13.30
2019-01-03T11:16:26.496Z,12.68
2019-01-03T11:18:56.185Z,12.05
2019-01-03T11:21:25.551Z,13.93
2019-01-03T11:23:54.919Z,10.63
2019-01-03T11:26:24.430Z,14.63
2019-01-03T11:28:53.816Z,13.32
2019-01-03T11:31:23.226Z,18.77
2019-01-03T11:33:52.648Z,18.20
2019-01-03T11:36:22.081Z,15.28
2019-01-03T11:38:51.458Z,21.93
2019-01-03T11:41:20.833Z,10.03
2019-01-03T11:43:50.215Z,14.40
2019-01-03T11:46:19.603Z,20.00
2019-01-03T11:48:49.005Z,17.27
2019-01-03T11:51:18.373Z,11.73
2019-01-03T11:53:47.767Z,13.85
2019-01-03T11:56:17.134Z,20.77
2019-01-03T11:58:46.509Z,12.93
2019-01-03T12:01:15.890Z,12.73
2019-01-03T12:03:45.274Z,13.95
2019-01-03T12:06:14.642Z,12.50
2019-01-03T12:08:44.117Z,17.30
2019-01-03T12:11:13.475Z,17.10
2019-01-03T12:13:42.871Z,14.45
2019-01-03T12:16:12.268Z,16.90
2019-01-03T12:18:41.648Z,16.30
2019-01-03T12:21:11.021Z,14.20
2019-01-03T12:23:40.413Z,14.73
2019-01-03T12:26:09.762Z,16.82
2019-01-03T12:28:39.149Z,19.55
2019-01-03T12:31:08.533Z,16.87
2019-01-03T12:33:37.925Z,15.05
2019-01-03T12:36:07.339Z,17.67
2019-01-03T12:38:36.740Z,13.15
2019-01-03T12:41:06.143Z,19.95
2019-01-03T12:43:35.489Z,14.35
2019-01-03T12:46:04.851Z,13.55
2019-01-03T12:48:34.227Z,18.20
2019-01-03T12:51:03.603Z,16.02
2019-01-03T12:53:32.998Z,20.68
2019-01-03T12:56:02.395Z,14.28
2019-01-03T12:58:31.826Z,14.98
2019-01-03T13:01:01.211Z,12.80
2019-01-03T13:03:30.621Z,15.28
2019-01-03T13:06:00.020Z,16.55
2019-01-03T13:08:29.393Z,18.15
2019-01-03T13:10:58.769Z,14.90
2019-01-03T13:13:28.480Z,18.25
2019-01-03T13:15:57.843Z,16.67
2019-01-03T13:18:27.246Z,16.20
2019-01-03T13:20:56.639Z,16.05
2019-01-03T13:23:27.810Z,14.25
2019-01-03T13:25:57.159Z,16.37
2019-01-03T13:28:26.542Z,13.62
2019-01-03T13:30:55.916Z,11.78
2019-01-03T13:33:25.294Z,14.68
2019-01-03T13:35:54.690Z,20.73
2019-01-03T13:38:24.094Z,15.78
2019-01-03T13:40:53.482Z,14.60
2019-01-03T13:43:22.850Z,11.33
2019-01-03T13:45:52.201Z,13.70
2019-01-03T13:48:21.560Z,11.43
2019-01-03T13:50:50.913Z,13.13
2019-01-03T13:53:20.302Z,10.00
2019-01-03T13:55:49.647Z,7.90
2019-01-03T13:58:19.078Z,13.88
2019-01-03T14:00:48.420Z,10.73
2019-01-03T14:03:17.818Z,9.80
2019-01-03T14:05:47.194Z,9.07
2019-01-03T14:08:16.554Z,11.53
2019-01-03T14:10:45.885Z,16.53
2019-01-03T14:13:15.254Z,11.40
2019-01-03T14:15:46.435Z,7.62
2019-01-03T14:18:15.783Z,11.63
2019-01-03T14:20:45.151Z,7.47
2019-01-03T14:23:14.550Z,12.40
2019-01-03T14:25:43.934Z,7.87
2019-01-03T14:28:13.285Z,13.37
2019-01-03T14:30:42.700Z,11.13
2019-01-03T14:33:12.157Z,7.58
2019-01-03T14:35:41.548Z,13.08
2019-01-03T14:38:10.928Z,16.40
2019-01-03T14:40:40.289Z,19.82
2019-01-03T14:43:09.651Z,20.85
2019-01-03T14:45:39.005Z,14.50
2019-01-03T14:48:08.388Z,16.57
2019-01-03T14:50:37.728Z,17.87
2019-01-03T14:53:07.114Z,12.05
2019-01-03T14:55:36.479Z,12.37
2019-01-03T14:58:05.835Z,15.10
2019-01-03T15:00:35.315Z,11.90
2019-01-03T15:03:04.649Z,13.47
2019-01-03T15:05:34.003Z,14.63
2019-01-03T15:08:03.384Z,13.88
2019-01-03T15:10:32.741Z,17.85
2019-01-03T15:13:02.127Z,14.45
2019-01-03T15:15:31.531Z,22.42
2019-01-03T15:18:00.871Z,18.00
2019-01-03T15:20:30.321Z,17.62
2019-01-03T15:23:18.859Z,17.62
2019-01-03T15:25:48.302Z,25.52
2019-01-03T15:28:20.975Z,24.95
2019-01-03T15:30:50.321Z,19.67
2019-01-03T15:33:19.765Z,29.77
2019-01-03T15:35:49.156Z,22.15
2019-01-03T15:38:19.505Z,20.55
2019-01-03T15:40:48.878Z,24.20
2019-01-03T15:43:18.270Z,21.68
2019-01-03T15:45:49.062Z,25.80
2019-01-03T15:48:18.425Z,19.00
2019-01-03T15:50:47.799Z,25.85
2019-01-03T15:53:17.162Z,15.70
2019-01-03T15:55:46.507Z,15.18
2019-01-03T15:58:15.912Z,18.10
2019-01-03T16:00:45.249Z,17.67
2019-01-03T16:03:14.616Z,21.55
2019-01-03T16:05:44.390Z,13.05
2019-01-03T16:08:13.765Z,14.35
2019-01-03T16:10:43.139Z,13.75
2019-01-03T16:13:12.487Z,10.98
2019-01-03T16:15:41.968Z,11.88
2019-01-03T16:18:11.320Z,14.13
2019-01-03T16:20:40.687Z,14.15
2019-01-03T16:23:10.124Z,16.05
2019-01-03T16:25:39.536Z,14.75
2019-01-03T16:28:08.921Z,13.70
2019-01-03T16:30:38.317Z,16.87
2019-01-03T16:33:07.728Z,15.13
2019-01-03T16:35:37.065Z,18.73
2019-01-03T16:38:06.466Z,17.57
2019-01-03T16:40:35.809Z,16.05
2019-01-03T16:43:05.168Z,17.60
2019-01-03T16:45:34.509Z,18.73
2019-01-03T16:48:03.868Z,12.82
2019-01-03T16:50:33.241Z,24.00
2019-01-03T16:53:02.583Z,25.90
2019-01-03T16:55:31.977Z,21.00
2019-01-03T16:58:01.322Z,22.00
2019-01-03T17:00:30.727Z,16.07
2019-01-03T17:03:00.073Z,21.23
2019-01-03T17:05:29.420Z,17.73
2019-01-03T17:07:58.759Z,16.67
2019-01-03T17:10:28.133Z,19.12
2019-01-03T17:13:00.783Z,22.40
2019-01-03T17:15:30.160Z,18.70
2019-01-03T17:17:59.495Z,17.55
2019-01-03T17:20:28.883Z,23.35
2019-01-03T17:22:58.231Z,24.82
2019-01-03T17:25:27.601Z,23.20
2019-01-03T17:27:56.964Z,25.45
2019-01-03T17:30:26.331Z,26.30
2019-01-03T17:32:55.710Z,22.50
2019-01-03T17:35:25.066Z,24.12
2019-01-03T17:37:54.421Z,32.03
2019-01-03T17:40:26.084Z,26.62
2019-01-03T17:42:55.478Z,23.10
2019-01-03T17:45:24.835Z,22.22
2019-01-03T17:47:54.176Z,19.98
2019-01-03T17:50:23.587Z,21.65
2019-01-03T17:52:53.977Z,23.10
2019-01-03T17:55:23.370Z,21.68
2019-01-03T17:57:54.481Z,21.80
2019-01-03T18:00:23.858Z,19.42
2019-01-03T18:02:53.883Z,18.70
2019-01-03T18:05:23.287Z,23.45
2019-01-03T18:07:52.766Z,25.02
2019-01-03T18:10:23.158Z,28.77
2019-01-03T18:12:52.582Z,29.15
2019-01-03T18:15:21.985Z,31.25
2019-01-03T18:17:51.373Z,23.77
2019-01-03T18:20:20.745Z,18.75
2019-01-03T18:22:51.096Z,24.50
2019-01-03T18:25:20.475Z,27.17
2019-01-03T18:27:49.874Z,30.57
2019-01-03T18:30:19.220Z,34.08
2019-01-03T18:32:48.562Z,36.48
2019-01-03T18:35:17.963Z,34.40
2019-01-03T18:37:47.297Z,34.83
2019-01-03T18:40:17.412Z,26.75
2019-01-03T18:42:47.757Z,35.65
2019-01-03T18:45:20.182Z,31.60
2019-01-03T18:47:49.561Z,35.95
2019-01-03T18:50:19.233Z,30.72
2019-01-03T18:52:48.763Z,39.78
2019-01-03T18:55:18.193Z,34.13
2019-01-03T18:57:47.572Z,32.05
2019-01-03T19:00:16.940Z,43.50
2019-01-03T19:02:46.272Z,25.57
2019-01-03T19:05:15.657Z,30.55
2019-01-03T19:07:45.051Z,26.80
2019-01-03T19:10:14.762Z,29.85
2019-01-03T19:12:44.694Z,38.60
2019-01-03T19:15:14.051Z,46.20
2019-01-03T19:17:43.442Z,45.65
2019-01-03T19:20:12.850Z,47.75
2019-01-03T19:22:42.250Z,56.50
2019-01-03T19:25:14.499Z,35.48
2019-01-03T19:27:43.967Z,30.60
2019-01-03T19:30:13.337Z,34.15
2019-01-03T19:32:46.234Z,38.90
2019-01-03T19:35:15.585Z,35.65
2019-01-03T19:37:44.953Z,29.95
2019-01-03T19:40:15.492Z,30.80
2019-01-03T19:42:46.256Z,35.48
2019-01-03T19:45:15.723Z,33.28
2019-01-03T19:47:45.136Z,32.70
2019-01-03T19:50:21.132Z,34.20
2019-01-03T19:52:54.326Z,32.65
2019-01-03T19:55:23.681Z,32.10
2019-01-03T19:57:53.361Z,30.27
2019-01-03T20:00:22.723Z,33.67
2019-01-03T20:02:52.232Z,31.77
2019-01-03T20:05:21.617Z,25.77
2019-01-03T20:07:51.208Z,30.05
2019-01-03T20:10:20.587Z,40.00
2019-01-03T20:12:50.133Z,37.63
2019-01-03T20:15:19.499Z,40.48
2019-01-03T20:17:48.883Z,35.30
2019-01-03T20:20:18.286Z,39.25
2019-01-03T20:22:47.648Z,39.83
2019-01-03T20:25:16.998Z,32.15
2019-01-03T20:27:46.400Z,33.85
2019-01-03T20:30:15.778Z,41.80
2019-01-03T20:32:45.131Z,41.63
2019-01-03T20:35:14.503Z,29.10
2019-01-03T20:37:43.884Z,36.93
2019-01-03T20:40:13.288Z,36.48
2019-01-03T20:42:42.767Z,42.03
2019-01-03T20:45:13.006Z,33.58
2019-01-03T20:47:42.377Z,27.13
2019-01-03T20:50:11.826Z,27.20
2019-01-03T20:52:41.201Z,29.77
2019-01-03T20:55:10.553Z,32.45
2019-01-03T20:57:39.933Z,37.03
2019-01-03T21:00:11.942Z,35.30
2019-01-03T21:02:41.330Z,37.55
2019-01-03T21:05:10.706Z,32.78
2019-01-03T21:07:40.074Z,42.45
2019-01-03T21:10:11.102Z,39.33
2019-01-03T21:12:40.464Z,43.08
2019-01-03T21:15:12.640Z,37.00
2019-01-03T21:17:42.015Z,41.63
2019-01-03T21:20:12.216Z,30.65
2019-01-03T21:22:41.853Z,27.07
2019-01-03T21:25:11.583Z,31.25
2019-01-03T21:27:41.117Z,27.52
2019-01-03T21:30:13.780Z,28.00
2019-01-03T21:32:43.142Z,30.82
2019-01-03T21:35:12.512Z,40.95
2019-01-03T21:37:41.878Z,32.45
2019-01-03T21:40:12.126Z,24.67
2019-01-03T21:42:41.480Z,30.68
2019-01-03T21:45:10.875Z,27.93
2019-01-03T21:47:40.219Z,27.52
2019-01-03T21:50:11.784Z,28.15
2019-01-03T21:52:41.135Z,29.80
2019-01-03T21:55:10.517Z,43.13
2019-01-03T21:57:39.883Z,39.90
2019-01-03T22:00:11.717Z,38.08
2019-01-03T22:02:41.111Z,36.93
2019-01-03T22:05:10.476Z,36.93
2019-01-03T22:07:40.842Z,38.48
2019-01-03T22:10:13.473Z,39.75
2019-01-03T22:12:42.842Z,42.80
2019-01-03T22:15:12.216Z,39.58
2019-01-03T22:17:41.566Z,36.15
2019-01-03T22:20:11.446Z,37.78
2019-01-03T22:22:40.809Z,33.88
2019-01-03T22:25:10.206Z,28.12
2019-01-03T22:27:40.538Z,31.82
2019-01-03T22:30:11.546Z,29.23
2019-01-03T22:32:41.087Z,42.62
2019-01-03T22:35:10.430Z,35.43
2019-01-03T22:37:39.816Z,29.20
2019-01-03T22:40:09.593Z,25.45
2019-01-03T22:42:38.961Z,24.87
2019-01-03T22:45:09.657Z,23.83
2019-01-03T22:47:39.044Z,21.82
2019-01-03T22:50:09.455Z,24.77
2019-01-03T22:52:38.822Z,23.32
2019-01-03T22:55:08.379Z,27.07
2019-01-03T22:57:37.726Z,22.62
2019-01-03T23:00:23.749Z,23.45
2019-01-03T23:02:53.208Z,26.37
2019-01-03T23:05:22.573Z,22.02
2019-01-03T23:07:51.945Z,22.02
2019-01-03T23:10:21.402Z,24.23
2019-01-03T23:12:50.996Z,21.85
2019-01-03T23:15:20.308Z,20.30
2019-01-03T23:17:49.691Z,21.40
2019-01-03T23:20:19.038Z,27.50
2019-01-03T23:22:48.407Z,21.45
2019-01-03T23:25:17.750Z,22.60
2019-01-03T23:27:47.105Z,19.87
2019-01-03T23:30:16.484Z,24.55
2019-01-03T23:32:45.877Z,24.52
2019-01-03T23:35:15.348Z,25.57
2019-01-03T23:37:44.728Z,24.18
2019-01-03T23:40:14.113Z,22.10
2019-01-03T23:42:43.475Z,21.05
2019-01-03T23:45:20.899Z,22.25
2019-01-03T23:47:52.391Z,18.32
2019-01-03T23:50:24.427Z,20.15
2019-01-03T23:52:53.807Z,23.40
2019-01-03T23:55:24.753Z,17.80
2019-01-03T23:57:54.125Z,21.00
